Time;durP1;ratioP1;P1;durP2;ratioP2;P2;SDS_P1;SDS_P2;PMS_P1;PMS_P2;Temp;Humidity;BMP_temperature;BMP_pressure;BME280_temperature;BME280_humidity;BME280_pressure;Samples;Min_cycle;Max_cycle;Signal;HPM_P1;HPM_P2
2023/03/31 00:01:08;;;;;;;21.35;3.67;;;;;;;;;;5001449;28;20053;-89
2023/03/31 00:03:37;;;;;;;24.65;3.97;;;;;;;;;;5003714;28;20062;-88
2023/03/31 00:06:04;;;;;;;23.10;3.33;;;;;;;;;;5002936;28;20046;-88
2023/03/31 00:08:34;;;;;;;20.15;3.78;;;;;;;;;;5003743;28;20042;-88
2023/03/31 00:11:03;;;;;;;22.77;4.10;;;;;;;;;;5003580;28;20054;-87
2023/03/31 00:13:29;;;;;;;21.90;4.05;;;;;;;;;;5002339;28;20078;-86
2023/03/31 00:15:56;;;;;;;23.45;4.13;;;;;;;;;;4996191;28;20039;-87
2023/03/31 00:18:24;;;;;;;23.55;4.28;;;;;;;;;;4998566;28;20046;-86
2023/03/31 00:20:52;;;;;;;22.10;3.75;;;;;;;;;;5007488;28;20482;-86
2023/03/31 00:23:26;;;;;;;19.85;3.67;;;;;;;;;;5003398;28;20054;-86
2023/03/31 00:25:56;;;;;;;22.63;3.50;;;;;;;;;;5002909;28;20097;-87
2023/03/31 00:28:22;;;;;;;23.52;4.30;;;;;;;;;;5003741;28;20058;-87
2023/03/31 00:30:49;;;;;;;24.63;4.13;;;;;;;;;;5004204;28;20046;-87
2023/03/31 00:33:15;;;;;;;24.55;4.15;;;;;;;;;;5000940;28;20050;-87
2023/03/31 00:35:42;;;;;;;21.60;3.97;;;;;;;;;;5002291;28;20095;-87
2023/03/31 00:38:12;;;;;;;23.45;4.03;;;;;;;;;;5003285;28;20556;-87
2023/03/31 00:40:44;;;;;;;31.05;4.95;;;;;;;;;;5002059;28;20121;-87
2023/03/31 00:43:27;;;;;;;22.58;3.80;;;;;;;;;;5002519;28;20043;-88
2023/03/31 00:45:54;;;;;;;18.85;4.03;;;;;;;;;;5003917;28;20094;-86
2023/03/31 00:48:20;;;;;;;24.17;4.40;;;;;;;;;;5007362;28;20039;-87
2023/03/31 00:50:49;;;;;;;25.75;3.60;;;;;;;;;;5003547;28;20046;-86
2023/03/31 00:53:16;;;;;;;23.08;3.95;;;;;;;;;;4999820;28;20377;-86
2023/03/31 00:55:45;;;;;;;22.70;4.20;;;;;;;;;;5001569;28;20073;-87
2023/03/31 00:58:13;;;;;;;22.63;3.80;;;;;;;;;;5001782;28;20508;-86
2023/03/31 01:00:40;;;;;;;22.55;4.22;;;;;;;;;;5001724;28;20035;-87
2023/03/31 01:03:08;;;;;;;26.48;4.20;;;;;;;;;;5000610;28;20038;-87
2023/03/31 01:06:09;;;;;;;24.77;4.10;;;;;;;;;;5002132;28;20069;-87
2023/03/31 01:08:36;;;;;;;21.33;3.65;;;;;;;;;;4990242;28;20133;-87
2023/03/31 01:11:06;;;;;;;22.40;3.53;;;;;;;;;;5000794;28;20046;-87
2023/03/31 01:13:34;;;;;;;20.98;4.10;;;;;;;;;;5000170;28;20073;-87
2023/03/31 01:16:00;;;;;;;22.20;4.10;;;;;;;;;;4985779;28;20046;-87
2023/03/31 01:18:27;;;;;;;22.65;3.63;;;;;;;;;;5000941;28;20092;-87
2023/03/31 01:20:56;;;;;;;24.90;4.32;;;;;;;;;;4984735;28;20046;-87
2023/03/31 01:23:40;;;;;;;26.23;3.85;;;;;;;;;;4987950;28;20070;-88
2023/03/31 01:26:19;;;;;;;24.45;3.88;;;;;;;;;;4999328;28;20092;-87
2023/03/31 01:28:56;;;;;;;20.10;3.97;;;;;;;;;;4994148;28;20050;-88
2023/03/31 01:31:31;;;;;;;25.23;3.55;;;;;;;;;;4996635;28;20043;-88
2023/03/31 01:34:09;;;;;;;20.20;3.45;;;;;;;;;;5003351;28;20440;-88
2023/03/31 01:36:56;;;;;;;22.70;3.97;;;;;;;;;;5002881;28;20049;-86
2023/03/31 01:39:41;;;;;;;19.95;3.55;;;;;;;;;;5011172;28;20090;-87
2023/03/31 01:42:11;;;;;;;24.02;4.40;;;;;;;;;;5001727;28;20523;-87
2023/03/31 01:44:55;;;;;;;21.77;3.90;;;;;;;;;;5000257;28;20068;-86
2023/03/31 01:47:29;;;;;;;21.27;4.45;;;;;;;;;;5001021;28;20042;-87
2023/03/31 01:50:02;;;;;;;19.58;4.43;;;;;;;;;;4981732;28;20043;-87
2023/03/31 01:52:42;;;;;;;24.15;5.05;;;;;;;;;;4998803;28;20110;-88
2023/03/31 01:55:31;;;;;;;20.45;4.38;;;;;;;;;;4994258;28;20043;-88
2023/03/31 01:58:05;;;;;;;17.13;4.97;;;;;;;;;;4984649;28;20134;-86
2023/03/31 02:00:33;;;;;;;22.23;5.13;;;;;;;;;;5000746;28;20034;-87
2023/03/31 02:03:04;;;;;;;18.08;4.60;;;;;;;;;;5002266;28;20046;-86
2023/03/31 02:05:37;;;;;;;20.27;5.43;;;;;;;;;;5001556;28;20054;-87
2023/03/31 02:08:14;;;;;;;19.90;4.88;;;;;;;;;;4999379;28;20137;-86
2023/03/31 02:10:42;;;;;;;22.13;5.47;;;;;;;;;;4999097;28;20121;-86
2023/03/31 02:13:09;;;;;;;19.27;5.10;;;;;;;;;;4986741;28;20062;-87
2023/03/31 02:15:37;;;;;;;22.48;5.20;;;;;;;;;;4970095;28;20050;-87
2023/03/31 02:18:10;;;;;;;23.65;5.72;;;;;;;;;;5001415;28;20054;-87
2023/03/31 02:20:37;;;;;;;17.00;5.10;;;;;;;;;;4998153;28;20050;-86
2023/03/31 02:23:04;;;;;;;17.95;4.65;;;;;;;;;;5000212;28;20516;-87
2023/03/31 02:25:35;;;;;;;21.98;5.13;;;;;;;;;;5001296;28;20038;-87
2023/03/31 02:28:04;;;;;;;21.00;4.55;;;;;;;;;;4999809;28;20078;-87
2023/03/31 02:30:36;;;;;;;20.02;5.38;;;;;;;;;;4999293;28;20046;-87
2023/03/31 02:33:04;;;;;;;21.42;4.55;;;;;;;;;;4999585;28;20047;-88
2023/03/31 02:35:30;;;;;;;16.27;4.50;;;;;;;;;;4999282;28;20038;-87
2023/03/31 02:37:57;;;;;;;19.80;4.78;;;;;;;;;;5000779;28;20050;-86
2023/03/31 02:40:26;;;;;;;18.85;4.75;;;;;;;;;;4999197;28;20419;-87
2023/03/31 02:42:52;;;;;;;21.08;5.10;;;;;;;;;;4999914;28;20102;-87
2023/03/31 02:45:37;;;;;;;18.27;4.65;;;;;;;;;;5000895;28;20073;-87
2023/03/31 02:48:05;;;;;;;15.20;4.20;;;;;;;;;;4995660;28;20049;-88
2023/03/31 02:50:37;;;;;;;16.85;4.18;;;;;;;;;;4994451;28;20126;-87
2023/03/31 02:53:09;;;;;;;18.38;4.55;;;;;;;;;;5003110;28;20069;-86
2023/03/31 02:55:42;;;;;;;19.63;4.50;;;;;;;;;;5003304;28;20053;-87
2023/03/31 02:58:26;;;;;;;18.58;4.30;;;;;;;;;;4999655;28;20145;-88
2023/03/31 03:01:01;;;;;;;14.35;3.95;;;;;;;;;;4990204;28;20047;-86
2023/03/31 03:03:42;;;;;;;20.25;4.75;;;;;;;;;;5002503;28;20051;-86
2023/03/31 03:06:30;;;;;;;15.70;4.55;;;;;;;;;;4988305;28;20450;-87
2023/03/31 03:09:06;;;;;;;16.00;3.90;;;;;;;;;;5005183;28;20480;-87
2023/03/31 03:11:38;;;;;;;16.92;4.28;;;;;;;;;;5003512;28;20042;-88
2023/03/31 03:14:09;;;;;;;14.57;3.70;;;;;;;;;;5003547;28;20054;-88
2023/03/31 03:16:39;;;;;;;15.50;4.07;;;;;;;;;;4993075;28;20042;-88
2023/03/31 03:19:06;;;;;;;17.45;3.45;;;;;;;;;;4997005;28;20046;-88
2023/03/31 03:21:32;;;;;;;21.55;4.07;;;;;;;;;;5003443;28;20057;-88
2023/03/31 03:23:59;;;;;;;16.48;3.63;;;;;;;;;;5004640;28;20100;-88
2023/03/31 03:26:27;;;;;;;16.60;3.92;;;;;;;;;;5005182;28;20050;-88
2023/03/31 03:28:57;;;;;;;15.77;4.05;;;;;;;;;;5002822;28;20065;-87
2023/03/31 03:31:24;;;;;;;13.20;3.85;;;;;;;;;;5004607;28;20093;-87
2023/03/31 03:33:51;;;;;;;15.02;3.75;;;;;;;;;;4986298;28;20100;-88
2023/03/31 03:36:18;;;;;;;11.70;3.30;;;;;;;;;;5003099;28;20038;-87
2023/03/31 03:38:44;;;;;;;12.32;3.47;;;;;;;;;;5004661;28;20079;-87
2023/03/31 03:41:18;;;;;;;14.07;3.72;;;;;;;;;;5000885;28;20129;-87
2023/03/31 03:43:44;;;;;;;12.57;3.28;;;;;;;;;;5004586;28;20404;-88
2023/03/31 03:46:11;;;;;;;13.50;3.70;;;;;;;;;;5004183;28;20121;-88
2023/03/31 03:48:37;;;;;;;14.25;3.70;;;;;;;;;;5001907;28;20042;-87
2023/03/31 03:51:03;;;;;;;13.50;3.60;;;;;;;;;;5001743;28;20043;-87
2023/03/31 03:53:29;;;;;;;13.60;3.88;;;;;;;;;;5005698;28;20113;-87
2023/03/31 03:55:58;;;;;;;14.02;3.97;;;;;;;;;;5007224;28;20050;-87
2023/03/31 03:58:24;;;;;;;15.15;3.75;;;;;;;;;;4994601;28;20046;-87
2023/03/31 04:00:50;;;;;;;10.85;3.35;;;;;;;;;;5001642;28;20038;-88
2023/03/31 04:03:19;;;;;;;12.13;3.38;;;;;;;;;;5000717;28;20057;-88
2023/03/31 04:05:48;;;;;;;13.10;3.85;;;;;;;;;;4999665;28;20046;-87
2023/03/31 04:08:14;;;;;;;13.20;3.53;;;;;;;;;;5003031;28;20051;-87
2023/03/31 04:10:48;;;;;;;14.00;3.50;;;;;;;;;;5003317;28;20550;-87
2023/03/31 04:13:18;;;;;;;11.77;3.80;;;;;;;;;;5004495;28;20124;-86
2023/03/31 04:15:44;;;;;;;12.38;3.70;;;;;;;;;;5003257;28;20042;-86
2023/03/31 04:18:17;;;;;;;11.93;3.33;;;;;;;;;;5006658;28;20042;-87
2023/03/31 04:20:53;;;;;;;11.88;3.35;;;;;;;;;;5002890;28;20042;-85
2023/03/31 04:23:19;;;;;;;11.50;3.45;;;;;;;;;;4999700;28;20062;-84
2023/03/31 04:25:48;;;;;;;14.23;3.90;;;;;;;;;;4998104;28;20070;-84
2023/03/31 04:28:14;;;;;;;10.40;3.08;;;;;;;;;;5003297;28;20092;-84
2023/03/31 04:30:40;;;;;;;11.27;3.30;;;;;;;;;;4986569;28;20153;-84
2023/03/31 04:33:06;;;;;;;9.95;3.38;;;;;;;;;;4999155;28;20201;-85
2023/03/31 04:35:48;;;;;;;10.38;3.22;;;;;;;;;;4992198;28;20448;-84
2023/03/31 04:38:17;;;;;;;;;;;;;;;;;;4994211;28;20054;-84
2023/03/31 04:40:44;;;;;;;9.65;3.22;;;;;;;;;;5006392;28;19921;-85
2023/03/31 04:43:10;;;;;;;10.63;2.92;;;;;;;;;;5005004;28;20060;-84
2023/03/31 04:45:36;;;;;;;11.13;3.38;;;;;;;;;;5003821;28;20046;-85
2023/03/31 04:48:06;;;;;;;12.70;3.97;;;;;;;;;;5003440;28;20125;-85
2023/03/31 04:50:32;;;;;;;11.15;3.83;;;;;;;;;;4996983;28;20049;-85
2023/03/31 04:52:58;;;;;;;10.13;3.78;;;;;;;;;;4986700;28;20070;-85
2023/03/31 04:55:24;;;;;;;14.82;3.90;;;;;;;;;;5000734;28;20098;-85
2023/03/31 04:57:51;;;;;;;12.82;3.90;;;;;;;;;;4993321;28;20049;-85
2023/03/31 05:00:17;;;;;;;10.02;3.50;;;;;;;;;;5002652;28;20046;-85
2023/03/31 05:02:43;;;;;;;11.02;3.88;;;;;;;;;;5004447;28;20428;-85
2023/03/31 05:05:10;;;;;;;12.35;3.85;;;;;;;;;;5005361;28;20050;-84
2023/03/31 05:07:36;;;;;;;13.80;4.28;;;;;;;;;;5001276;28;20058;-83
2023/03/31 05:10:02;;;;;;;13.40;4.85;;;;;;;;;;5005979;28;20039;-83
2023/03/31 05:12:28;;;;;;;18.58;5.10;;;;;;;;;;5000503;28;20038;-83
2023/03/31 05:14:54;;;;;;;16.30;4.68;;;;;;;;;;5001008;28;20050;-82
2023/03/31 05:17:21;;;;;;;14.00;4.82;;;;;;;;;;5001099;28;20061;-82
2023/03/31 05:19:47;;;;;;;14.32;4.93;;;;;;;;;;4995355;28;20061;-82
2023/03/31 05:22:13;;;;;;;15.40;4.97;;;;;;;;;;4979304;28;20046;-82
2023/03/31 05:24:39;;;;;;;13.60;5.28;;;;;;;;;;4964106;28;20051;-82
2023/03/31 05:27:05;;;;;;;15.60;5.55;;;;;;;;;;4992104;28;20042;-83
2023/03/31 05:29:31;;;;;;;17.50;5.38;;;;;;;;;;4999183;28;20572;-83
2023/03/31 05:31:57;;;;;;;14.70;5.00;;;;;;;;;;5020123;28;20503;-82
2023/03/31 05:34:23;;;;;;;13.30;5.22;;;;;;;;;;5001017;28;20042;-83
2023/03/31 05:36:52;;;;;;;10.85;4.43;;;;;;;;;;4996272;28;20500;-83
2023/03/31 05:39:18;;;;;;;16.92;5.10;;;;;;;;;;5000606;28;20054;-83
2023/03/31 05:41:44;;;;;;;15.45;5.13;;;;;;;;;;4998605;28;20047;-82
2023/03/31 05:44:11;;;;;;;16.38;5.30;;;;;;;;;;5002591;28;20122;-83
2023/03/31 05:46:37;;;;;;;17.58;4.97;;;;;;;;;;5002942;28;20564;-83
2023/03/31 05:49:03;;;;;;;15.57;4.68;;;;;;;;;;5002649;28;20050;-82
2023/03/31 05:51:29;;;;;;;14.40;5.13;;;;;;;;;;5003370;28;20480;-82
2023/03/31 05:53:55;;;;;;;14.07;5.15;;;;;;;;;;5001478;28;20046;-83
2023/03/31 05:56:21;;;;;;;11.57;4.80;;;;;;;;;;5003611;28;20046;-83
2023/03/31 05:58:48;;;;;;;16.15;4.63;;;;;;;;;;5000910;28;20034;-82
2023/03/31 06:01:20;;;;;;;16.10;4.82;;;;;;;;;;4991637;28;20054;-83
2023/03/31 06:03:46;;;;;;;15.25;4.90;;;;;;;;;;4997913;28;20378;-83
2023/03/31 06:06:13;;;;;;;16.75;4.53;;;;;;;;;;4997096;28;20038;-82
2023/03/31 06:08:40;;;;;;;13.52;4.95;;;;;;;;;;4999604;28;20061;-83
2023/03/31 06:11:07;;;;;;;14.25;5.30;;;;;;;;;;4997613;28;20101;-82
2023/03/31 06:13:36;;;;;;;15.32;5.20;;;;;;;;;;4999405;28;20042;-82
2023/03/31 06:16:03;;;;;;;16.80;6.03;;;;;;;;;;4996723;28;20712;-82
2023/03/31 06:18:30;;;;;;;14.30;5.60;;;;;;;;;;5003291;28;20477;-82
2023/03/31 06:20:57;;;;;;;13.73;5.57;;;;;;;;;;5001628;28;20049;-82
2023/03/31 06:23:23;;;;;;;14.77;5.25;;;;;;;;;;5001165;28;20170;-82
2023/03/31 06:25:51;;;;;;;15.32;5.97;;;;;;;;;;5002282;28;20046;-83
2023/03/31 06:28:17;;;;;;;16.92;5.53;;;;;;;;;;4999129;28;20042;-83
2023/03/31 06:30:43;;;;;;;14.65;5.38;;;;;;;;;;5001312;28;20057;-83
2023/03/31 06:33:10;;;;;;;13.15;5.32;;;;;;;;;;5003539;28;20452;-83
2023/03/31 06:35:39;;;;;;;11.00;5.45;;;;;;;;;;5002081;28;20053;-82
2023/03/31 06:38:05;;;;;;;12.63;4.95;;;;;;;;;;5003228;28;20042;-82
2023/03/31 06:40:32;;;;;;;14.02;4.80;;;;;;;;;;4994459;28;20097;-83
2023/03/31 06:42:58;;;;;;;13.23;5.40;;;;;;;;;;4998815;28;20074;-83
2023/03/31 06:45:24;;;;;;;15.02;5.32;;;;;;;;;;4983918;28;20042;-82
2023/03/31 06:47:50;;;;;;;17.35;5.28;;;;;;;;;;4990404;28;21461;-83
2023/03/31 06:50:17;;;;;;;15.35;5.00;;;;;;;;;;5002323;28;20038;-82
2023/03/31 06:52:43;;;;;;;15.30;4.95;;;;;;;;;;5000738;28;20065;-82
2023/03/31 06:55:11;;;;;;;12.82;5.38;;;;;;;;;;4999577;28;20074;-82
2023/03/31 06:57:38;;;;;;;13.80;5.28;;;;;;;;;;4988172;28;20091;-81
2023/03/31 07:00:04;;;;;;;16.98;5.25;;;;;;;;;;4997795;28;20042;-81
2023/03/31 07:02:30;;;;;;;11.73;4.63;;;;;;;;;;4995735;28;20050;-81
2023/03/31 07:04:56;;;;;;;16.25;4.65;;;;;;;;;;4997494;28;20054;-82
2023/03/31 07:07:23;;;;;;;14.15;5.28;;;;;;;;;;4995763;28;20523;-82
2023/03/31 07:09:49;;;;;;;15.95;5.18;;;;;;;;;;4998859;28;20046;-82
2023/03/31 07:12:15;;;;;;;17.90;5.32;;;;;;;;;;5005639;28;20038;-82
2023/03/31 07:14:41;;;;;;;14.57;4.95;;;;;;;;;;5007314;28;20137;-82
2023/03/31 07:17:07;;;;;;;12.73;4.78;;;;;;;;;;5001860;28;20039;-82
2023/03/31 07:19:36;;;;;;;13.15;4.72;;;;;;;;;;4999421;28;20373;-82
2023/03/31 07:22:04;;;;;;;13.02;5.03;;;;;;;;;;5003381;28;20073;-82
2023/03/31 07:24:31;;;;;;;14.48;5.22;;;;;;;;;;5002058;28;20046;-83
2023/03/31 07:26:57;;;;;;;12.43;5.68;;;;;;;;;;5002657;28;20105;-82
2023/03/31 07:29:23;;;;;;;16.42;5.53;;;;;;;;;;5003208;28;20042;-83
2023/03/31 07:31:49;;;;;;;18.63;6.20;;;;;;;;;;5003753;28;20054;-83
2023/03/31 07:34:16;;;;;;;18.33;5.68;;;;;;;;;;5001780;28;20074;-82
2023/03/31 07:36:42;;;;;;;14.38;5.50;;;;;;;;;;5001457;28;20065;-83
2023/03/31 07:39:08;;;;;;;14.05;5.65;;;;;;;;;;5016044;28;20050;-83
2023/03/31 07:41:34;;;;;;;14.45;4.90;;;;;;;;;;5001405;28;20035;-83
2023/03/31 07:44:01;;;;;;;11.65;4.75;;;;;;;;;;5002584;28;20054;-83
2023/03/31 07:46:27;;;;;;;10.55;4.53;;;;;;;;;;5003723;28;20077;-81
2023/03/31 07:48:54;;;;;;;11.48;4.88;;;;;;;;;;5006377;28;20034;-83
2023/03/31 07:51:21;;;;;;;10.98;4.45;;;;;;;;;;5007624;28;20073;-83
2023/03/31 07:53:48;;;;;;;14.52;4.45;;;;;;;;;;5005049;28;20534;-83
2023/03/31 07:56:15;;;;;;;13.43;4.45;;;;;;;;;;5007751;28;20046;-83
2023/03/31 07:58:42;;;;;;;13.40;4.22;;;;;;;;;;5006969;28;20050;-83
2023/03/31 08:01:08;;;;;;;13.68;4.63;;;;;;;;;;5008003;28;20046;-83
2023/03/31 08:03:34;;;;;;;14.00;4.63;;;;;;;;;;5010152;28;20122;-82
2023/03/31 08:06:00;;;;;;;14.43;4.80;;;;;;;;;;5007571;28;20054;-82
2023/03/31 08:08:26;;;;;;;14.13;4.20;;;;;;;;;;5010929;28;20050;-83
2023/03/31 08:10:52;;;;;;;13.90;4.20;;;;;;;;;;5005154;28;20405;-82
2023/03/31 08:13:19;;;;;;;10.15;4.07;;;;;;;;;;5018474;28;20046;-81
2023/03/31 08:15:45;;;;;;;10.43;3.97;;;;;;;;;;4994680;28;20068;-82
2023/03/31 08:18:11;;;;;;;14.85;5.10;;;;;;;;;;5007038;28;20142;-83
2023/03/31 08:20:38;;;;;;;13.13;4.85;;;;;;;;;;5007821;28;20051;-83
2023/03/31 08:23:07;;;;;;;13.65;5.32;;;;;;;;;;5006488;28;20050;-83
2023/03/31 08:25:34;;;;;;;14.40;5.50;;;;;;;;;;5006821;28;20567;-84
2023/03/31 08:28:00;;;;;;;14.32;5.30;;;;;;;;;;5006167;28;20042;-82
2023/03/31 08:30:26;;;;;;;15.20;5.82;;;;;;;;;;5005274;28;20400;-83
2023/03/31 08:32:52;;;;;;;15.95;5.90;;;;;;;;;;5004496;28;20053;-83
2023/03/31 08:35:18;;;;;;;13.82;5.68;;;;;;;;;;5002674;28;20045;-82
2023/03/31 08:37:44;;;;;;;14.43;6.13;;;;;;;;;;5004750;28;20038;-84
2023/03/31 08:40:22;;;;;;;16.33;5.20;;;;;;;;;;5005698;28;20416;-82
2023/03/31 08:43:15;;;;;;;10.00;4.82;;;;;;;;;;5006443;28;20062;-83
2023/03/31 08:45:42;;;;;;;10.15;4.60;;;;;;;;;;4998508;28;20054;-83
2023/03/31 08:48:09;;;;;;;13.63;4.63;;;;;;;;;;4977987;28;20050;-84
2023/03/31 08:50:40;;;;;;;13.80;5.07;;;;;;;;;;4995466;28;20043;-83
2023/03/31 08:53:18;;;;;;;13.63;5.03;;;;;;;;;;4993123;28;20041;-83
2023/03/31 08:55:48;;;;;;;12.57;5.00;;;;;;;;;;4977174;28;20050;-84
2023/03/31 08:58:33;;;;;;;13.05;5.55;;;;;;;;;;4997541;28;20045;-84
2023/03/31 09:01:15;;;;;;;11.48;5.20;;;;;;;;;;4997803;28;20057;-83
2023/03/31 09:04:00;;;;;;;12.40;4.90;;;;;;;;;;4996926;28;20055;-84
2023/03/31 09:06:37;;;;;;;10.13;3.85;;;;;;;;;;5003027;28;20046;-84
2023/03/31 09:09:07;;;;;;;11.25;3.72;;;;;;;;;;5002763;28;20058;-83
2023/03/31 09:11:39;;;;;;;13.45;4.00;;;;;;;;;;4999543;28;20046;-85
2023/03/31 09:14:05;;;;;;;11.43;4.00;;;;;;;;;;4992309;28;20104;-83
2023/03/31 09:16:41;;;;;;;10.38;3.35;;;;;;;;;;4998990;28;20057;-84
2023/03/31 09:19:13;;;;;;;10.90;3.40;;;;;;;;;;5005220;28;20038;-83
2023/03/31 09:21:50;;;;;;;10.48;3.40;;;;;;;;;;5005165;28;20046;-83
2023/03/31 09:24:18;;;;;;;12.48;3.90;;;;;;;;;;5003570;28;20485;-83
2023/03/31 09:26:51;;;;;;;12.55;3.40;;;;;;;;;;4999629;28;20066;-84
2023/03/31 09:29:26;;;;;;;15.95;3.88;;;;;;;;;;5002385;28;20057;-83
2023/03/31 09:31:53;;;;;;;12.00;3.40;;;;;;;;;;5007258;28;20066;-83
2023/03/31 09:34:24;;;;;;;10.30;3.65;;;;;;;;;;5003681;28;20046;-83
2023/03/31 09:36:51;;;;;;;13.10;3.30;;;;;;;;;;5004292;28;20050;-83
2023/03/31 09:39:17;;;;;;;13.00;3.22;;;;;;;;;;5004533;28;20042;-83
2023/03/31 09:41:45;;;;;;;12.73;3.35;;;;;;;;;;5002488;28;20056;-82
2023/03/31 09:44:23;;;;;;;14.95;3.25;;;;;;;;;;5002288;28;20117;-83
2023/03/31 09:46:50;;;;;;;10.50;2.90;;;;;;;;;;5003448;28;20109;-83
2023/03/31 09:49:18;;;;;;;8.38;2.60;;;;;;;;;;5005512;28;20125;-83
2023/03/31 09:51:46;;;;;;;9.75;2.30;;;;;;;;;;5004892;28;20054;-83
2023/03/31 09:54:15;;;;;;;6.95;2.08;;;;;;;;;;5001300;28;20054;-84
2023/03/31 09:56:41;;;;;;;10.40;2.33;;;;;;;;;;5003071;28;20054;-83
2023/03/31 09:59:30;;;;;;;11.02;2.50;;;;;;;;;;5002336;28;20038;-83
2023/03/31 10:01:57;;;;;;;7.60;2.22;;;;;;;;;;4985254;28;20055;-83
2023/03/31 10:04:25;;;;;;;6.68;2.10;;;;;;;;;;5003414;28;20102;-83
2023/03/31 10:06:52;;;;;;;6.28;1.50;;;;;;;;;;5005460;28;20054;-83
2023/03/31 10:09:20;;;;;;;6.35;1.80;;;;;;;;;;4992218;28;20042;-84
2023/03/31 10:12:13;;;;;;;5.93;1.40;;;;;;;;;;5008290;28;20115;-84
2023/03/31 10:14:46;;;;;;;6.38;1.58;;;;;;;;;;5002992;28;20054;-84
2023/03/31 10:17:17;;;;;;;6.53;2.00;;;;;;;;;;4989103;28;20050;-84
2023/03/31 10:20:13;;;;;;;7.25;2.17;;;;;;;;;;5004335;28;20085;-84
2023/03/31 10:22:43;;;;;;;9.23;1.85;;;;;;;;;;5004702;28;20105;-82
2023/03/31 10:25:10;;;;;;;9.70;2.20;;;;;;;;;;5005215;28;20042;-84
2023/03/31 10:27:40;;;;;;;7.95;1.80;;;;;;;;;;5006477;28;20046;-83
2023/03/31 10:30:09;;;;;;;8.70;2.00;;;;;;;;;;5006712;28;20053;-83
2023/03/31 10:32:40;;;;;;;7.80;2.10;;;;;;;;;;5007635;28;20128;-84
2023/03/31 10:35:08;;;;;;;7.18;1.60;;;;;;;;;;5008381;28;20074;-84
2023/03/31 10:37:35;;;;;;;6.30;1.80;;;;;;;;;;5006615;28;20054;-83
2023/03/31 10:40:20;;;;;;;6.45;1.70;;;;;;;;;;5008724;28;20074;-83
2023/03/31 10:42:48;;;;;;;6.28;1.48;;;;;;;;;;5006544;28;20073;-83
2023/03/31 10:45:20;;;;;;;7.07;1.67;;;;;;;;;;5000375;28;20069;-84
2023/03/31 10:47:48;;;;;;;5.32;1.48;;;;;;;;;;5006926;28;20135;-84
2023/03/31 10:50:15;;;;;;;7.38;1.63;;;;;;;;;;5004608;28;20053;-84
2023/03/31 10:52:50;;;;;;;7.22;1.83;;;;;;;;;;5003926;28;20634;-84
2023/03/31 10:55:26;;;;;;;6.78;1.58;;;;;;;;;;4986303;28;20057;-85
2023/03/31 10:57:56;;;;;;;6.63;1.60;;;;;;;;;;5004235;28;20054;-85
2023/03/31 11:00:52;;;;;;;7.70;1.73;;;;;;;;;;5000871;28;20050;-85
2023/03/31 11:03:18;;;;;;;6.90;1.40;;;;;;;;;;4997434;28;20043;-85
2023/03/31 11:05:51;;;;;;;7.82;1.63;;;;;;;;;;5003430;28;20034;-84
2023/03/31 11:08:24;;;;;;;6.00;1.65;;;;;;;;;;5002693;28;20051;-84
2023/03/31 11:10:59;;;;;;;7.47;1.60;;;;;;;;;;5002615;28;20051;-85
2023/03/31 11:13:28;;;;;;;5.28;1.52;;;;;;;;;;5000408;28;20161;-85
2023/03/31 11:15:54;;;;;;;6.80;1.58;;;;;;;;;;5003498;28;20177;-84
2023/03/31 11:18:35;;;;;;;7.00;1.52;;;;;;;;;;5001182;28;20042;-83
2023/03/31 11:21:01;;;;;;;8.35;1.55;;;;;;;;;;4996812;28;20054;-85
2023/03/31 11:23:31;;;;;;;4.75;1.48;;;;;;;;;;5003816;28;20046;-84
2023/03/31 11:26:02;;;;;;;5.20;1.58;;;;;;;;;;5007153;28;20084;-83
2023/03/31 11:28:47;;;;;;;5.55;1.33;;;;;;;;;;5016445;28;20038;-84
2023/03/31 11:31:13;;;;;;;6.93;1.50;;;;;;;;;;5014778;28;20044;-84
2023/03/31 11:33:39;;;;;;;5.60;1.42;;;;;;;;;;5009929;28;20050;-83
2023/03/31 11:36:10;;;;;;;6.95;1.38;;;;;;;;;;5004385;28;20085;-84
2023/03/31 11:38:37;;;;;;;;;;;;;;;;;;5004226;28;20057;-84
2023/03/31 11:41:20;;;;;;;7.28;1.50;;;;;;;;;;5004544;28;19937;-85
2023/03/31 11:43:51;;;;;;;7.63;1.90;;;;;;;;;;5006614;28;20409;-84
2023/03/31 11:46:17;;;;;;;;;;;;;;;;;;5004280;28;20567;-83
2023/03/31 11:48:46;;;;;;;6.25;1.50;;;;;;;;;;5003433;28;19922;-83
2023/03/31 11:51:33;;;;;;;5.82;1.50;;;;;;;;;;5004018;28;20118;-83
2023/03/31 11:54:02;;;;;;;7.28;1.55;;;;;;;;;;4977661;28;20109;-84
2023/03/31 11:56:32;;;;;;;6.75;1.60;;;;;;;;;;5005287;28;20050;-83
2023/03/31 11:59:00;;;;;;;6.45;1.70;;;;;;;;;;5004305;28;20050;-84
2023/03/31 12:01:33;;;;;;;7.90;1.77;;;;;;;;;;5006945;28;20064;-84
2023/03/31 12:04:22;;;;;;;7.57;1.85;;;;;;;;;;5005637;28;20046;-84
2023/03/31 12:06:50;;;;;;;7.53;2.00;;;;;;;;;;5007962;28;20069;-83
2023/03/31 12:09:20;;;;;;;6.88;1.88;;;;;;;;;;5006605;28;20069;-84
2023/03/31 12:12:00;;;;;;;10.32;2.30;;;;;;;;;;4992775;28;20050;-83
2023/03/31 12:14:33;;;;;;;9.55;2.17;;;;;;;;;;5007355;28;20053;-83
2023/03/31 12:17:04;;;;;;;9.50;2.30;;;;;;;;;;5004545;28;20046;-83
2023/03/31 12:19:39;;;;;;;8.13;2.28;;;;;;;;;;5004244;28;20048;-84
2023/03/31 12:22:18;;;;;;;10.93;3.00;;;;;;;;;;5004434;28;20176;-85
2023/03/31 12:24:45;;;;;;;8.82;2.03;;;;;;;;;;5005276;28;20038;-84
2023/03/31 12:27:27;;;;;;;9.70;2.58;;;;;;;;;;5002747;28;20057;-84
2023/03/31 12:30:13;;;;;;;10.43;2.55;;;;;;;;;;4997010;28;20042;-84
2023/03/31 12:32:56;;;;;;;9.90;2.33;;;;;;;;;;4987935;28;20038;-84
2023/03/31 12:35:29;;;;;;;11.43;2.70;;;;;;;;;;5006334;28;20053;-85
2023/03/31 12:37:55;;;;;;;10.23;2.50;;;;;;;;;;5001668;28;20034;-83
2023/03/31 12:40:34;;;;;;;12.13;2.88;;;;;;;;;;5005286;28;20038;-84
2023/03/31 12:43:07;;;;;;;11.43;2.90;;;;;;;;;;4987822;28;20126;-83
2023/03/31 12:45:38;;;;;;;11.07;2.83;;;;;;;;;;5003782;28;20046;-84
2023/03/31 12:48:19;;;;;;;9.10;2.40;;;;;;;;;;4999197;28;20054;-83
2023/03/31 12:51:04;;;;;;;9.55;2.70;;;;;;;;;;4997911;28;20057;-84
2023/03/31 12:53:36;;;;;;;13.48;2.47;;;;;;;;;;5004200;28;20034;-84
2023/03/31 12:56:02;;;;;;;9.85;2.38;;;;;;;;;;5001473;28;20042;-83
2023/03/31 12:58:30;;;;;;;10.70;2.20;;;;;;;;;;5004624;28;20081;-84
2023/03/31 13:01:13;;;;;;;10.95;2.22;;;;;;;;;;4996227;28;20046;-84
2023/03/31 13:03:41;;;;;;;10.10;2.50;;;;;;;;;;5000053;28;20062;-84
2023/03/31 13:06:10;;;;;;;8.68;2.30;;;;;;;;;;5000894;28;20091;-85
2023/03/31 13:08:51;;;;;;;9.15;2.42;;;;;;;;;;5003394;28;20117;-84
2023/03/31 13:11:18;;;;;;;9.85;2.40;;;;;;;;;;5000445;28;20420;-84
2023/03/31 13:13:47;;;;;;;11.55;2.90;;;;;;;;;;5008659;28;20030;-85
2023/03/31 13:16:18;;;;;;;9.18;2.78;;;;;;;;;;5013823;28;20073;-84
2023/03/31 13:18:49;;;;;;;10.70;3.00;;;;;;;;;;5012605;28;20122;-85
2023/03/31 13:21:16;;;;;;;12.30;3.20;;;;;;;;;;4984327;28;20400;-83
2023/03/31 13:23:45;;;;;;;10.80;2.90;;;;;;;;;;5012796;28;20113;-84
2023/03/31 13:26:40;;;;;;;12.48;3.10;;;;;;;;;;5000499;28;20220;-85
2023/03/31 13:29:16;;;;;;;11.82;3.00;;;;;;;;;;4990539;28;20110;-86
2023/03/31 13:32:00;;;;;;;10.23;3.03;;;;;;;;;;4983477;28;20046;-85
2023/03/31 13:34:43;;;;;;;11.40;3.63;;;;;;;;;;4998434;28;20057;-85
2023/03/31 13:37:30;;;;;;;10.98;3.63;;;;;;;;;;5003926;28;20050;-84
2023/03/31 13:40:08;;;;;;;9.55;3.17;;;;;;;;;;4988182;28;20111;-84
2023/03/31 13:42:53;;;;;;;14.43;3.10;;;;;;;;;;4995439;28;20092;-85
2023/03/31 13:45:26;;;;;;;13.52;3.50;;;;;;;;;;5002404;28;20046;-85
2023/03/31 13:47:56;;;;;;;15.23;3.13;;;;;;;;;;5000664;28;20057;-84
2023/03/31 13:50:28;;;;;;;13.77;3.00;;;;;;;;;;5001314;28;20440;-84
2023/03/31 13:53:13;;;;;;;13.05;2.88;;;;;;;;;;5004033;28;20053;-85
2023/03/31 13:55:58;;;;;;;16.27;2.90;;;;;;;;;;5002040;28;20053;-85
2023/03/31 13:58:39;;;;;;;11.50;2.90;;;;;;;;;;5000178;28;20046;-85
2023/03/31 14:01:06;;;;;;;;;;;;;;;;;;5004186;28;20061;-84
2023/03/31 14:03:51;;;;;;;13.88;2.83;;;;;;;;;;5001833;28;19968;-85
2023/03/31 14:06:24;;;;;;;11.45;2.65;;;;;;;;;;5004236;28;20128;-83
2023/03/31 14:08:51;;;;;;;13.77;2.78;;;;;;;;;;4991589;28;20057;-84
2023/03/31 14:11:21;;;;;;;15.45;3.20;;;;;;;;;;5004432;28;20115;-84
2023/03/31 14:14:00;;;;;;;13.73;2.95;;;;;;;;;;5002909;28;20042;-84
2023/03/31 14:16:28;;;;;;;14.30;3.15;;;;;;;;;;4994236;28;20421;-84
2023/03/31 14:19:00;;;;;;;12.82;2.85;;;;;;;;;;5003429;28;20061;-85
2023/03/31 14:21:34;;;;;;;12.13;2.90;;;;;;;;;;5003705;28;20042;-84
2023/03/31 14:24:21;;;;;;;14.23;3.60;;;;;;;;;;5005247;28;20594;-83
2023/03/31 14:26:56;;;;;;;13.85;3.55;;;;;;;;;;5004590;28;20177;-83
2023/03/31 14:29:41;;;;;;;10.95;2.17;;;;;;;;;;5000984;28;20042;-83
2023/03/31 14:32:30;;;;;;;9.25;2.35;;;;;;;;;;5003190;28;20046;-82
2023/03/31 14:34:59;;;;;;;6.85;1.30;;;;;;;;;;4999009;28;20062;-83
2023/03/31 14:37:27;;;;;;;7.70;1.60;;;;;;;;;;4999341;28;20034;-81
2023/03/31 14:39:55;;;;;;;7.97;1.90;;;;;;;;;;5000119;28;20140;-82
2023/03/31 14:42:40;;;;;;;7.60;1.50;;;;;;;;;;4992497;28;20049;-82
2023/03/31 14:45:15;;;;;;;7.97;1.60;;;;;;;;;;4997461;28;20070;-82
2023/03/31 14:47:41;;;;;;;9.32;1.75;;;;;;;;;;4999702;28;20050;-82
2023/03/31 14:50:13;;;;;;;9.43;1.50;;;;;;;;;;4999046;28;20050;-82
2023/03/31 14:52:39;;;;;;;10.40;1.80;;;;;;;;;;4998766;28;20097;-82
2023/03/31 14:55:06;;;;;;;9.63;1.80;;;;;;;;;;5001792;28;20173;-82